createdAt,value
2023-03-04T00:00:48.052Z,99080.63
2023-03-04T00:03:15.796Z,99073.69
2023-03-04T00:05:42.956Z,99075.41
2023-03-04T00:08:09.996Z,99075.47
2023-03-04T00:10:38.426Z,99073.72
2023-03-04T00:13:05.488Z,99064.19
2023-03-04T00:15:32.833Z,99059.94
2023-03-04T00:17:59.845Z,99059.13
2023-03-04T00:20:26.934Z,99054.94
2023-03-04T00:22:54.359Z,99045.53
2023-03-04T00:25:21.414Z,99048.22
2023-03-04T00:27:48.677Z,99049.22
2023-03-04T00:30:16.032Z,99038.06
2023-03-04T00:32:43.859Z,99041.59
2023-03-04T00:35:11.235Z,99035.63
2023-03-04T00:37:38.404Z,99037.34
2023-03-04T00:40:06.468Z,99042.59
2023-03-04T00:42:33.453Z,99039.13
2023-03-04T00:45:00.845Z,99039.13
2023-03-04T00:47:27.978Z,99033.97
2023-03-04T00:49:55.025Z,99029.63
2023-03-04T00:52:22.046Z,99029.63
2023-03-04T00:54:49.330Z,99029.59
2023-03-04T00:57:16.147Z,99020.94
2023-03-04T00:59:43.929Z,99026.09
2023-03-04T01:02:11.385Z,99011.41
2023-03-04T01:04:38.929Z,99008.78
2023-03-04T01:07:06.165Z,99001.81
2023-03-04T01:09:33.391Z,99000.09
2023-03-04T01:12:00.668Z,99002.63
2023-03-04T01:14:28.458Z,98995.72
2023-03-04T01:16:56.165Z,98996.56
2023-03-04T01:19:23.471Z,98986.13
2023-03-04T01:21:50.890Z,98993.06
2023-03-04T01:24:18.079Z,98987.81
2023-03-04T01:26:45.678Z,98986.91
2023-03-04T01:29:13.165Z,98990.34
2023-03-04T01:31:41.001Z,98984.28
2023-03-04T01:34:10.268Z,98986.00
2023-03-04T01:36:37.707Z,98980.78
2023-03-04T01:39:05.306Z,98973.00
2023-03-04T01:41:32.980Z,98967.78
2023-03-04T01:44:02.584Z,98968.69
2023-03-04T01:46:31.683Z,98960.91
2023-03-04T01:48:59.450Z,98957.41
2023-03-04T01:51:26.727Z,98951.34
2023-03-04T01:53:55.148Z,98952.22
2023-03-04T01:56:52.013Z,98944.38
2023-03-04T01:59:26.694Z,98943.56
2023-03-04T02:02:00.162Z,98943.56
2023-03-04T02:04:29.830Z,98947.00
2023-03-04T02:06:58.418Z,98952.16
2023-03-04T02:09:25.679Z,98948.69
2023-03-04T02:11:53.598Z,98951.25
2023-03-04T02:14:21.239Z,98951.22
2023-03-04T02:16:49.595Z,98946.84
2023-03-04T02:19:32.169Z,98938.19
2023-03-04T02:21:59.581Z,98935.50
2023-03-04T02:24:32.696Z,98927.69
2023-03-04T02:27:00.124Z,98919.00
2023-03-04T02:29:29.123Z,98917.28
2023-03-04T02:31:56.879Z,98913.88
2023-03-04T02:34:43.118Z,98906.91
2023-03-04T02:37:11.794Z,98909.47
2023-03-04T02:39:47.676Z,98906.88
2023-03-04T02:42:16.315Z,98894.69
2023-03-04T02:44:47.849Z,98894.69
2023-03-04T02:47:18.470Z,98898.13
2023-03-04T02:49:47.315Z,98891.13
2023-03-04T02:52:20.624Z,98884.97
2023-03-04T02:54:47.842Z,98887.56
2023-03-04T02:57:16.660Z,98892.69
2023-03-04T02:59:47.164Z,98896.13
2023-03-04T03:02:18.759Z,98883.03
2023-03-04T03:04:46.295Z,98884.72
2023-03-04T03:07:15.951Z,98882.06
2023-03-04T03:09:43.624Z,98887.19
2023-03-04T03:12:11.032Z,98881.00
2023-03-04T03:14:38.296Z,98867.13
2023-03-04T03:17:06.604Z,98866.16
2023-03-04T03:19:33.787Z,98865.25
2023-03-04T03:22:04.015Z,98860.88
2023-03-04T03:24:31.163Z,98867.00
2023-03-04T03:26:58.372Z,98855.63
2023-03-04T03:29:25.678Z,98854.59
2023-03-04T03:31:53.480Z,98848.47
2023-03-04T03:34:21.567Z,98833.81
2023-03-04T03:36:49.946Z,98837.16
2023-03-04T03:39:17.869Z,98832.69
2023-03-04T03:41:45.129Z,98824.78
2023-03-04T03:44:12.482Z,98832.50
2023-03-04T03:46:39.743Z,98830.66
2023-03-04T03:49:07.448Z,98824.50
2023-03-04T03:51:35.427Z,98819.28
2023-03-04T03:54:02.852Z,98820.06
2023-03-04T03:56:30.196Z,98815.69
2023-03-04T03:58:57.677Z,98812.97
2023-03-04T04:01:24.777Z,98806.84
2023-03-04T04:03:51.965Z,98794.66
2023-03-04T04:06:19.260Z,98793.88
2023-03-04T04:08:46.409Z,98784.56
2023-03-04T04:11:13.626Z,98788.81
2023-03-04T04:13:40.642Z,98786.25
2023-03-04T04:16:08.747Z,98780.22
2023-03-04T04:18:36.085Z,98777.75
2023-03-04T04:21:03.950Z,98765.00
2023-03-04T04:23:31.279Z,98762.41
2023-03-04T04:25:59.206Z,98755.41
2023-03-04T04:28:26.466Z,98743.47
2023-03-04T04:30:53.556Z,98746.19
2023-03-04T04:33:20.729Z,98743.63
2023-03-04T04:35:48.066Z,98724.56
2023-03-04T04:38:15.138Z,98730.72
2023-03-04T04:40:43.114Z,98727.91
2023-03-04T04:43:10.471Z,98720.91
2023-03-04T04:45:37.482Z,98723.38
2023-03-04T04:48:04.982Z,98722.41
2023-03-04T04:50:33.125Z,98715.25
2023-03-04T04:53:00.750Z,98711.69
2023-03-04T04:55:28.626Z,98712.47
2023-03-04T04:57:56.017Z,98704.50
2023-03-04T05:00:23.343Z,98696.66
2023-03-04T05:02:50.524Z,98700.06
2023-03-04T05:05:17.746Z,98689.53
2023-03-04T05:07:44.907Z,98688.59
2023-03-04T05:10:12.294Z,98699.72
2023-03-04T05:12:39.433Z,98697.97
2023-03-04T05:15:06.821Z,98691.66
2023-03-04T05:17:33.788Z,98685.56
2023-03-04T05:20:00.982Z,98690.63
2023-03-04T05:22:27.977Z,98694.78
2023-03-04T05:24:55.437Z,98693.69
2023-03-04T05:27:22.674Z,98678.91
2023-03-04T05:29:49.842Z,98684.84
2023-03-04T05:32:16.945Z,98682.91
2023-03-04T05:34:44.304Z,98677.53
2023-03-04T05:37:11.505Z,98672.28
2023-03-04T05:39:38.685Z,98665.09
2023-03-04T05:42:05.818Z,98668.25
2023-03-04T05:44:32.844Z,98667.22
2023-03-04T05:46:59.884Z,98658.44
2023-03-04T05:49:27.018Z,98663.31
2023-03-04T05:51:54.367Z,98654.69
2023-03-04T05:54:21.829Z,98658.72
2023-03-04T05:56:48.888Z,98653.44
2023-03-04T05:59:20.707Z,98654.00
2023-03-04T06:01:48.664Z,98646.91
2023-03-04T06:04:15.903Z,98646.94
2023-03-04T06:06:43.060Z,98649.69
2023-03-04T06:09:10.448Z,98636.53
2023-03-04T06:11:37.519Z,98632.19
2023-03-04T06:14:04.528Z,98627.69
2023-03-04T06:16:31.930Z,98632.75
2023-03-04T06:18:59.390Z,98630.19
2023-03-04T06:21:26.696Z,98631.78
2023-03-04T06:23:53.780Z,98627.22
2023-03-04T06:26:20.853Z,98627.75
2023-03-04T06:28:47.969Z,98625.59
2023-03-04T06:31:15.439Z,98626.72
2023-03-04T06:33:42.529Z,98618.66
2023-03-04T06:36:09.693Z,98628.56
2023-03-04T06:38:36.800Z,98620.03
2023-03-04T06:41:11.678Z,98610.25
2023-03-04T06:43:39.920Z,98607.84
2023-03-04T06:46:07.905Z,98601.19
2023-03-04T06:48:35.096Z,98609.69
2023-03-04T06:51:06.913Z,98595.34
2023-03-04T06:53:33.874Z,98595.44
2023-03-04T06:56:00.973Z,98592.38
2023-03-04T06:58:28.036Z,98591.03
2023-03-04T07:00:55.063Z,98586.56
2023-03-04T07:03:22.480Z,98585.53
2023-03-04T07:05:50.386Z,98580.44
2023-03-04T07:08:17.443Z,98568.72
2023-03-04T07:10:44.622Z,98569.66
2023-03-04T07:13:11.815Z,98557.25
2023-03-04T07:15:38.925Z,98564.13
2023-03-04T07:18:06.127Z,98564.75
2023-03-04T07:20:33.269Z,98564.63
2023-03-04T07:23:00.514Z,98555.47
2023-03-04T07:25:27.734Z,98557.44
2023-03-04T07:27:54.802Z,98551.59
2023-03-04T07:30:23.447Z,98548.66
2023-03-04T07:32:50.719Z,98546.72
2023-03-04T07:35:18.123Z,98548.06
2023-03-04T07:37:45.834Z,98552.91
2023-03-04T07:40:13.176Z,98545.03
2023-03-04T07:42:40.422Z,98543.34
2023-03-04T07:45:12.068Z,98542.38
2023-03-04T07:47:40.055Z,98546.13
2023-03-04T07:50:07.716Z,98548.56
2023-03-04T07:52:38.924Z,98546.38
2023-03-04T07:55:06.576Z,98551.78
2023-03-04T07:57:33.706Z,98553.97
2023-03-04T08:00:01.318Z,98545.88
2023-03-04T08:02:30.497Z,98528.78
2023-03-04T08:04:57.559Z,98536.56
2023-03-04T08:07:24.781Z,98535.50
2023-03-04T08:09:51.916Z,98527.25
2023-03-04T08:12:19.288Z,98527.13
2023-03-04T08:14:46.391Z,98542.69
2023-03-04T08:17:14.951Z,98527.00
2023-03-04T08:19:42.092Z,98537.09
2023-03-04T08:22:09.808Z,98526.97
2023-03-04T08:24:37.199Z,98529.97
2023-03-04T08:27:05.423Z,98529.25
2023-03-04T08:29:32.635Z,98525.38
2023-03-04T08:32:00.021Z,98521.63
2023-03-04T08:34:28.440Z,98527.84
2023-03-04T08:36:56.292Z,98528.31
2023-03-04T08:39:23.467Z,98524.19
2023-03-04T08:41:50.789Z,98522.03
2023-03-04T08:44:18.122Z,98520.44
2023-03-04T08:46:45.587Z,98503.03
2023-03-04T08:49:15.321Z,98521.13
2023-03-04T08:51:43.127Z,98525.00
2023-03-04T08:54:10.643Z,98516.41
2023-03-04T08:56:38.194Z,98524.50
2023-03-04T08:59:05.628Z,98534.50
2023-03-04T09:01:33.166Z,98501.38
2023-03-04T09:04:00.736Z,98501.97
2023-03-04T09:06:27.833Z,98506.78
2023-03-04T09:08:55.078Z,98511.25
2023-03-04T09:11:22.710Z,98513.34
2023-03-04T09:13:51.807Z,98505.22
2023-03-04T09:16:19.568Z,98509.78
2023-03-04T09:18:46.784Z,98501.97
2023-03-04T09:21:13.986Z,98512.09
2023-03-04T09:23:41.613Z,98512.66
2023-03-04T09:26:26.777Z,98497.41
2023-03-04T09:28:57.431Z,98510.47
2023-03-04T09:31:25.749Z,98512.25
2023-03-04T09:33:53.881Z,98511.44
2023-03-04T09:36:22.219Z,98515.53
2023-03-04T09:38:49.767Z,98508.28
2023-03-04T09:41:22.150Z,98501.13
2023-03-04T09:43:51.701Z,98511.75
2023-03-04T09:46:36.335Z,98490.91
2023-03-04T09:49:06.730Z,98502.25
2023-03-04T09:51:45.580Z,98504.81
2023-03-04T09:54:26.697Z,98494.03
2023-03-04T09:57:00.532Z,98510.81
2023-03-04T09:59:43.572Z,98511.72
2023-03-04T10:02:21.687Z,98517.00
2023-03-04T10:04:56.647Z,98506.66
2023-03-04T10:07:32.062Z,98506.78
2023-03-04T10:10:22.478Z,98511.75
2023-03-04T10:12:53.537Z,98513.41
2023-03-04T10:15:51.818Z,98517.09
2023-03-04T10:18:23.262Z,98511.38
2023-03-04T10:21:03.035Z,98508.75
2023-03-04T10:23:33.963Z,98502.47
2023-03-04T10:26:15.838Z,98506.56
2023-03-04T10:28:47.655Z,98493.38
2023-03-04T10:31:35.904Z,98491.97
2023-03-04T10:34:06.045Z,98476.56
2023-03-04T10:37:01.037Z,98470.56
2023-03-04T10:39:35.292Z,98448.59
2023-03-04T10:42:05.176Z,98447.34
2023-03-04T10:44:35.083Z,98449.72
2023-03-04T10:47:02.365Z,98441.06
2023-03-04T10:49:31.508Z,98434.47
2023-03-04T10:52:21.844Z,98416.75
2023-03-04T10:54:53.345Z,98421.25
2023-03-04T10:58:05.238Z,98433.63
2023-03-04T11:00:37.383Z,98417.31
2023-03-04T11:03:36.268Z,98415.44
2023-03-04T11:06:13.455Z,98395.81
2023-03-04T11:08:42.927Z,98406.56
2023-03-04T11:11:35.209Z,98401.44
2023-03-04T11:14:17.565Z,98401.53
2023-03-04T11:16:57.796Z,98399.84
2023-03-04T11:19:35.930Z,98392.84
2023-03-04T11:22:03.946Z,98392.22
2023-03-04T11:24:35.254Z,98392.03
2023-03-04T11:27:19.137Z,98381.31
2023-03-04T11:29:55.572Z,98385.19
2023-03-04T11:32:28.895Z,98380.19
2023-03-04T11:35:30.460Z,98387.84
2023-03-04T11:38:17.966Z,98380.41
2023-03-04T11:41:11.300Z,98377.56
2023-03-04T11:43:47.284Z,98368.25
2023-03-04T11:46:36.449Z,98357.25
2023-03-04T11:50:01.102Z,98368.34
2023-03-04T11:53:09.791Z,98359.84
2023-03-04T11:56:11.757Z,98364.84
2023-03-04T11:58:51.255Z,98356.88
2023-03-04T12:01:29.079Z,98356.16
2023-03-04T12:04:07.565Z,98361.41
2023-03-04T12:06:47.183Z,98363.41
2023-03-04T12:09:45.706Z,98362.94
2023-03-04T12:12:24.933Z,98357.53
2023-03-04T12:15:19.853Z,98372.38
2023-03-04T12:17:59.319Z,98359.47
2023-03-04T12:20:57.322Z,98355.03
2023-03-04T12:24:09.410Z,98355.59
2023-03-04T12:26:51.522Z,98353.22
2023-03-04T12:29:52.498Z,98357.41
2023-03-04T12:33:12.035Z,98357.53
2023-03-04T12:35:59.156Z,98347.09
2023-03-04T12:38:46.856Z,98348.31
2023-03-04T12:41:23.491Z,98355.09
2023-03-04T12:44:20.268Z,98346.88
2023-03-04T12:47:12.143Z,98350.38
2023-03-04T12:50:05.264Z,98363.06
2023-03-04T12:53:01.169Z,98370.94
2023-03-04T12:55:42.345Z,98369.91
2023-03-04T12:58:31.627Z,98371.53
2023-03-04T13:01:24.186Z,98366.63
2023-03-04T13:04:05.421Z,98363.28
2023-03-04T13:06:49.187Z,98365.19
2023-03-04T13:09:41.448Z,98362.22
2023-03-04T13:12:24.399Z,98371.34
2023-03-04T13:15:12.801Z,98374.91
2023-03-04T13:17:49.803Z,98350.75
2023-03-04T13:20:39.355Z,98359.19
2023-03-04T13:23:09.334Z,98352.63
2023-03-04T13:25:46.997Z,98357.28
2023-03-04T13:28:19.404Z,98351.41
2023-03-04T13:30:53.598Z,98345.03
2023-03-04T13:33:24.039Z,98343.31
2023-03-04T13:36:06.763Z,98330.56
2023-03-04T13:38:37.517Z,98332.41
2023-03-04T13:41:19.852Z,98315.06
2023-03-04T13:43:48.261Z,98309.94
2023-03-04T13:46:18.789Z,98311.41
2023-03-04T13:48:55.049Z,98310.06
2023-03-04T13:51:52.372Z,98293.56
2023-03-04T13:54:19.896Z,98303.06
2023-03-04T13:56:50.356Z,98299.47
2023-03-04T13:59:36.171Z,98317.81
2023-03-04T14:02:12.241Z,98303.00
2023-03-04T14:04:45.949Z,98317.53
2023-03-04T14:07:28.262Z,98331.50
2023-03-04T14:10:02.039Z,98316.75
2023-03-04T14:12:31.066Z,98321.78
2023-03-04T14:15:01.668Z,98329.78
2023-03-04T14:17:32.615Z,98318.22
2023-03-04T14:20:01.588Z,98321.09
2023-03-04T14:22:34.146Z,98319.50
2023-03-04T14:25:26.937Z,98323.84
2023-03-04T14:28:12.261Z,98325.34
2023-03-04T14:30:43.644Z,98319.38
2023-03-04T14:33:44.824Z,98322.41
2023-03-04T14:36:19.196Z,98319.75
2023-03-04T14:38:52.944Z,98310.13
2023-03-04T14:41:34.640Z,98310.47
2023-03-04T14:44:24.161Z,98304.94
2023-03-04T14:47:07.074Z,98308.22
2023-03-04T14:49:37.323Z,98310.94
2023-03-04T14:52:05.073Z,98316.13
2023-03-04T14:54:41.692Z,98296.50
2023-03-04T14:57:24.131Z,98302.81
2023-03-04T14:59:52.378Z,98305.88
2023-03-04T15:02:39.392Z,98289.56
2023-03-04T15:05:27.114Z,98292.34
2023-03-04T15:07:58.100Z,98299.69
2023-03-04T15:10:38.604Z,98300.91
2023-03-04T15:13:08.888Z,98296.41
2023-03-04T15:15:43.049Z,98297.41
2023-03-04T15:18:13.228Z,98298.25
2023-03-04T15:20:40.814Z,98299.22
2023-03-04T15:23:08.825Z,98304.28
2023-03-04T15:25:37.101Z,98300.75
2023-03-04T15:28:07.192Z,98302.13
2023-03-04T15:30:35.877Z,98292.09
2023-03-04T15:33:03.227Z,98306.81
2023-03-04T15:35:33.554Z,98300.34
2023-03-04T15:38:02.019Z,98295.38
2023-03-04T15:40:29.272Z,98299.63
2023-03-04T15:42:58.385Z,98298.06
2023-03-04T15:45:32.739Z,98307.78
2023-03-04T15:47:59.879Z,98303.38
2023-03-04T15:50:31.041Z,98298.06
2023-03-04T15:53:02.468Z,98304.41
2023-03-04T15:55:32.003Z,98308.66
2023-03-04T15:58:00.774Z,98307.88
2023-03-04T16:00:28.161Z,98298.63
2023-03-04T16:02:55.838Z,98304.47
2023-03-04T16:05:22.895Z,98276.56
2023-03-04T16:07:51.593Z,98296.94
2023-03-04T16:10:21.883Z,98295.69
2023-03-04T16:12:49.022Z,98297.09
2023-03-04T16:15:22.359Z,98302.97
2023-03-04T16:17:49.917Z,98309.06
2023-03-04T16:20:24.764Z,98295.13
2023-03-04T16:22:55.461Z,98288.38
2023-03-04T16:25:24.336Z,98292.81
2023-03-04T16:27:53.080Z,98290.34
2023-03-04T16:30:23.763Z,98286.03
2023-03-04T16:32:50.986Z,98289.16
2023-03-04T16:35:20.542Z,98289.97
2023-03-04T16:37:47.743Z,98275.47
2023-03-04T16:40:17.158Z,98277.81
2023-03-04T16:42:44.324Z,98261.16
2023-03-04T16:45:23.982Z,98256.81
2023-03-04T16:47:51.278Z,98256.91
2023-03-04T16:50:21.238Z,98253.31
2023-03-04T16:52:49.540Z,98246.63
2023-03-04T16:55:30.607Z,98251.59
2023-03-04T16:57:58.591Z,98255.22
2023-03-04T17:00:28.505Z,98264.59
2023-03-04T17:03:01.354Z,98257.72
2023-03-04T17:05:31.517Z,98253.44
2023-03-04T17:07:58.889Z,98245.06
2023-03-04T17:10:26.602Z,98251.34
2023-03-04T17:12:53.757Z,98236.28
2023-03-04T17:15:21.609Z,98242.09
2023-03-04T17:17:48.857Z,98232.31
2023-03-04T17:20:19.003Z,98242.31
2023-03-04T17:22:46.156Z,98242.41
2023-03-04T17:25:13.474Z,98214.75
2023-03-04T17:27:41.041Z,98237.44
2023-03-04T17:30:11.528Z,98218.31
2023-03-04T17:32:40.088Z,98245.06
2023-03-04T17:35:09.112Z,98233.94
2023-03-04T17:37:36.704Z,98228.72
2023-03-04T17:40:14.400Z,98226.28
2023-03-04T17:42:43.158Z,98224.69
2023-03-04T17:45:11.292Z,98215.25
2023-03-04T17:47:39.407Z,98226.63
2023-03-04T17:50:08.046Z,98211.53
2023-03-04T17:52:35.303Z,98216.81
2023-03-04T17:55:02.478Z,98214.81
2023-03-04T17:57:29.794Z,98209.59
2023-03-04T17:59:57.913Z,98207.09
2023-03-04T18:02:24.855Z,98215.59
2023-03-04T18:04:52.057Z,98215.59
2023-03-04T18:07:19.182Z,98205.31
2023-03-04T18:09:47.497Z,98202.81
2023-03-04T18:12:15.267Z,98208.63
2023-03-04T18:14:42.316Z,98193.88
2023-03-04T18:17:09.509Z,98212.31
2023-03-04T18:19:36.896Z,98185.56
2023-03-04T18:22:03.991Z,98192.31
2023-03-04T18:24:31.373Z,98198.72
2023-03-04T18:26:58.691Z,98202.28
2023-03-04T18:29:26.147Z,98191.06
2023-03-04T18:31:53.739Z,98187.66
2023-03-04T18:34:20.777Z,98191.00
2023-03-04T18:36:48.206Z,98186.72
2023-03-04T18:39:17.641Z,98202.34
2023-03-04T18:41:45.027Z,98180.50
2023-03-04T18:44:14.862Z,98174.25
2023-03-04T18:46:48.465Z,98188.28
2023-03-04T18:49:15.865Z,98182.22
2023-03-04T18:51:43.062Z,98188.50
2023-03-04T18:54:10.240Z,98184.06
2023-03-04T18:56:59.848Z,98188.34
2023-03-04T18:59:37.130Z,98183.84
2023-03-04T19:02:09.997Z,98180.41
2023-03-04T19:04:37.354Z,98176.03
2023-03-04T19:07:04.599Z,98169.84
2023-03-04T19:09:31.899Z,98143.06
2023-03-04T19:11:59.248Z,98151.78
2023-03-04T19:14:26.600Z,98155.34
2023-03-04T19:16:53.660Z,98147.16
2023-03-04T19:19:20.706Z,98140.72
2023-03-04T19:21:47.901Z,98144.69
2023-03-04T19:24:15.239Z,98148.63
2023-03-04T19:26:42.463Z,98143.84
2023-03-04T19:29:09.708Z,98149.91
2023-03-04T19:31:41.164Z,98140.19
2023-03-04T19:34:09.597Z,98137.63
2023-03-04T19:36:36.578Z,98137.22
2023-03-04T19:39:03.876Z,98144.91
2023-03-04T19:41:31.076Z,98136.31
2023-03-04T19:43:58.458Z,98141.63
2023-03-04T19:46:27.719Z,98146.50
2023-03-04T19:48:54.771Z,98137.50
2023-03-04T19:51:29.468Z,98136.41
2023-03-04T19:53:56.704Z,98132.56
2023-03-04T19:56:24.080Z,98137.69
2023-03-04T19:58:55.356Z,98120.94
2023-03-04T20:01:28.529Z,98121.63
2023-03-04T20:04:01.312Z,98130.91
2023-03-04T20:06:29.156Z,98132.53
2023-03-04T20:08:58.894Z,98115.84
2023-03-04T20:11:27.208Z,98116.53
2023-03-04T20:13:55.390Z,98122.44
2023-03-04T20:16:22.481Z,98110.28
2023-03-04T20:18:52.579Z,98139.47
2023-03-04T20:21:19.815Z,98234.75
2023-03-04T20:23:47.324Z,98257.44
2023-03-04T20:26:14.693Z,98246.44
2023-03-04T20:29:23.877Z,98256.03
2023-03-04T20:31:52.979Z,98256.41
2023-03-04T20:34:20.670Z,98251.00
2023-03-04T20:36:48.040Z,98261.50
2023-03-04T20:39:28.099Z,98266.19
2023-03-04T20:41:58.242Z,98267.28
2023-03-04T20:44:26.074Z,98264.91
2023-03-04T20:46:53.440Z,98268.38
2023-03-04T20:49:24.570Z,98264.81
2023-03-04T20:52:03.461Z,98270.34
2023-03-04T20:54:31.181Z,98274.59
2023-03-04T20:56:58.977Z,98279.88
2023-03-04T20:59:26.425Z,98283.22
2023-03-04T21:01:54.700Z,98285.97
2023-03-04T21:04:23.494Z,98282.38
2023-03-04T21:06:52.092Z,98283.34
2023-03-04T21:09:21.850Z,98292.84
2023-03-04T21:11:51.598Z,98292.72
2023-03-04T21:14:24.628Z,98309.34
2023-03-04T21:16:57.463Z,98305.22
2023-03-04T21:19:30.659Z,98314.66
2023-03-04T21:21:59.325Z,98305.97
2023-03-04T21:24:29.415Z,98312.31
2023-03-04T21:26:57.155Z,98312.25
2023-03-04T21:29:28.340Z,98317.59
2023-03-04T21:32:12.962Z,98309.53
2023-03-04T21:34:48.392Z,98314.22
2023-03-04T21:37:15.739Z,98317.66
2023-03-04T21:42:15.448Z,98309.75
2023-03-04T21:44:49.682Z,98303.94
2023-03-04T21:47:18.682Z,98304.09
2023-03-04T21:49:46.411Z,98302.13
2023-03-04T21:52:14.230Z,98310.78
2023-03-04T21:54:41.526Z,98298.72
2023-03-04T21:57:09.038Z,98306.00
2023-03-04T21:59:36.352Z,98304.09
2023-03-04T22:02:07.447Z,98303.41
2023-03-04T22:04:34.583Z,98309.59
2023-03-04T22:07:02.394Z,98304.38
2023-03-04T22:09:29.908Z,98311.97
2023-03-04T22:11:57.506Z,98302.53
2023-03-04T22:14:25.237Z,98301.75
2023-03-04T22:16:55.721Z,98303.69
2023-03-04T22:19:25.434Z,98311.44
2023-03-04T22:21:53.594Z,98333.06
2023-03-04T22:24:21.367Z,98329.69
2023-03-04T22:26:49.545Z,98344.53
2023-03-04T22:29:16.979Z,98348.03
2023-03-04T22:31:45.700Z,98350.03
2023-03-04T22:34:15.086Z,98355.16
2023-03-04T22:36:45.411Z,98371.72
2023-03-04T22:39:20.735Z,98362.28
2023-03-04T22:41:48.054Z,98368.25
2023-03-04T22:44:15.695Z,98344.88
2023-03-04T22:46:43.989Z,98376.19
2023-03-04T22:49:13.991Z,98390.25
2023-03-04T22:51:43.260Z,98388.56
2023-03-04T22:54:15.360Z,98399.94
2023-03-04T22:56:42.792Z,98400.13
2023-03-04T22:59:10.363Z,98401.25
2023-03-04T23:01:37.604Z,98403.09
2023-03-04T23:04:05.166Z,98402.31
2023-03-04T23:06:33.164Z,98417.28
2023-03-04T23:09:00.809Z,98419.22
2023-03-04T23:11:31.201Z,98417.81
2023-03-04T23:13:59.312Z,98414.56
2023-03-04T23:16:28.763Z,98419.00
2023-03-04T23:18:58.210Z,98421.78
2023-03-04T23:21:28.523Z,98421.09
2023-03-04T23:23:56.202Z,98431.63
2023-03-04T23:26:26.452Z,98428.25
2023-03-04T23:28:56.174Z,98437.00
2023-03-04T23:31:23.598Z,98442.31
2023-03-04T23:33:51.300Z,98440.69
2023-03-04T23:36:19.749Z,98433.19
2023-03-04T23:38:48.765Z,98435.75
2023-03-04T23:41:19.361Z,98439.22
2023-03-04T23:43:47.876Z,98443.56
2023-03-04T23:46:15.706Z,98432.47
2023-03-04T23:48:46.571Z,98438.59
2023-03-04T23:51:16.711Z,98438.69
2023-03-04T23:53:44.649Z,98442.16
2023-03-04T23:56:15.740Z,98445.66
2023-03-04T23:58:48.560Z,98449.97
